Terminal Aerodrome Forecast
Issued by NWS Binghamton, NY

Home | Current Version | Previous Version | Text Only | Print | Product List | Glossary On
Versions: 1 2 3 4 5 6 7 8 9 10 11 12 13 14 15 16 17 18 19
000
FTUS41 KBGM 021721
TAFSYR
TAF
KSYR 021721Z 0218/0318 26020G27KT P6SM BKN035 OVC080
     FM030000 27013G21KT 5SM -SHRA BR OVC035
     FM030300 27012KT 6SM -SHRASN BR OVC025
     FM030700 29014G22KT 3SM -SHSN OVC025
     FM031500 29014G21KT P6SM -SHSN OVC035=

USA.gov is the U.S. government's official web portal to all federal, state and local government web resources and services.